createdAt,value
2018-07-24T00:02:18.023Z,50.60
2018-07-24T00:04:46.487Z,50.80
2018-07-24T00:07:14.957Z,50.90
2018-07-24T00:09:43.934Z,50.90
2018-07-24T00:12:12.409Z,51.30
2018-07-24T00:14:41.740Z,51.20
2018-07-24T00:17:10.394Z,51.40
2018-07-24T00:19:38.875Z,51.10
2018-07-24T00:22:07.460Z,51.60
2018-07-24T00:24:36.017Z,51.80
2018-07-24T00:29:32.668Z,51.90
2018-07-24T00:34:29.660Z,52.40
2018-07-24T00:36:58.457Z,52.10
2018-07-24T00:39:26.940Z,52.60
2018-07-24T00:41:55.427Z,53.10
2018-07-24T00:44:23.917Z,53.20
2018-07-24T00:46:52.401Z,53.20
2018-07-24T00:49:20.882Z,53.20
2018-07-24T00:51:49.399Z,53.10
2018-07-24T00:54:18.264Z,53.00
2018-07-24T00:56:47.936Z,53.10
2018-07-24T00:59:16.401Z,52.90
2018-07-24T01:01:45.249Z,53.20
2018-07-24T01:04:13.701Z,53.00
2018-07-24T01:06:42.176Z,53.30
2018-07-24T01:09:11.777Z,53.30
2018-07-24T01:11:40.636Z,53.80
2018-07-24T01:14:10.149Z,53.80
2018-07-24T01:19:07.005Z,53.70
2018-07-24T01:21:35.485Z,53.90
2018-07-24T01:24:03.980Z,54.20
2018-07-24T01:29:00.717Z,54.60
2018-07-24T01:31:29.191Z,54.30
2018-07-24T01:33:57.691Z,54.70
2018-07-24T01:36:26.141Z,54.70
2018-07-24T01:38:54.631Z,54.40
2018-07-24T01:41:23.117Z,54.90
2018-07-24T01:43:51.599Z,55.50
2018-07-24T01:46:20.193Z,54.60
2018-07-24T01:51:16.866Z,55.10
2018-07-24T02:01:09.990Z,55.70
2018-07-24T02:03:38.466Z,56.80
2018-07-24T02:06:07.158Z,56.10
2018-07-24T02:08:35.658Z,56.40
2018-07-24T02:11:04.120Z,56.70
2018-07-24T02:13:32.727Z,57.00
2018-07-24T02:16:01.183Z,56.40
2018-07-24T02:18:29.686Z,56.40
2018-07-24T02:20:58.224Z,56.90
2018-07-24T02:23:26.658Z,56.90
2018-07-24T02:25:55.137Z,57.00
2018-07-24T02:28:23.585Z,57.00
2018-07-24T02:30:52.091Z,57.30
2018-07-24T02:33:20.562Z,57.30
2018-07-24T02:35:49.078Z,57.60
2018-07-24T02:38:17.593Z,58.00
2018-07-24T02:40:46.106Z,58.50
2018-07-24T02:43:14.562Z,58.50
2018-07-24T02:48:11.479Z,58.50
2018-07-24T02:50:39.998Z,58.30
2018-07-24T03:02:21.562Z,58.30
2018-07-24T03:04:50.107Z,58.10
2018-07-24T03:07:18.618Z,58.50
2018-07-24T03:12:15.406Z,58.70
2018-07-24T03:14:43.912Z,59.00
2018-07-24T03:17:12.420Z,58.80
2018-07-24T03:19:40.882Z,58.60
2018-07-24T03:22:09.432Z,59.80
2018-07-24T03:24:38.002Z,59.20
2018-07-24T03:27:06.752Z,59.40
2018-07-24T03:29:35.258Z,59.60
2018-07-24T03:34:31.874Z,59.70
2018-07-24T03:37:00.381Z,59.90
2018-07-24T03:39:28.859Z,60.00
2018-07-24T03:41:57.397Z,59.90
2018-07-24T03:44:25.882Z,59.60
2018-07-24T03:46:54.501Z,58.90
2018-07-24T03:49:22.963Z,58.70
2018-07-24T03:51:51.445Z,58.60
2018-07-24T03:54:19.931Z,58.80
2018-07-24T03:56:48.645Z,59.00
2018-07-24T04:01:45.417Z,58.50
2018-07-24T04:04:13.986Z,58.70
2018-07-24T04:09:11.910Z,58.20
2018-07-24T04:11:41.250Z,57.90
2018-07-24T04:14:09.887Z,57.60
2018-07-24T04:16:39.118Z,57.40
2018-07-24T04:19:07.635Z,57.00
2018-07-24T04:24:04.461Z,56.90
2018-07-24T04:26:32.938Z,56.40
2018-07-24T04:29:01.625Z,55.90
2018-07-24T04:31:30.140Z,55.20
2018-07-24T04:33:58.582Z,55.00
2018-07-24T04:36:27.086Z,55.40
2018-07-24T04:38:55.510Z,55.50
2018-07-24T04:41:26.883Z,55.00
2018-07-24T04:43:55.575Z,54.80
2018-07-24T04:46:25.004Z,54.80
2018-07-24T04:48:53.452Z,54.10
2018-07-24T04:51:21.959Z,54.20
2018-07-24T04:53:50.434Z,54.30
2018-07-24T04:56:18.965Z,53.40
2018-07-24T04:58:47.437Z,52.80
2018-07-24T05:03:44.230Z,52.40
2018-07-24T05:06:12.743Z,52.30
2018-07-24T05:08:41.261Z,52.30
2018-07-24T05:11:09.848Z,52.90
2018-07-24T05:13:38.591Z,52.30
2018-07-24T05:16:07.125Z,51.90
2018-07-24T05:18:35.574Z,51.50
2018-07-24T05:21:04.511Z,51.10
2018-07-24T05:23:34.241Z,51.00
2018-07-24T05:26:02.825Z,50.80
2018-07-24T05:28:31.263Z,50.30
2018-07-24T05:30:59.821Z,49.90
2018-07-24T05:33:28.303Z,50.00
2018-07-24T05:35:56.928Z,49.40
2018-07-24T05:38:25.382Z,49.20
2018-07-24T05:43:22.417Z,49.00
2018-07-24T05:45:50.984Z,49.00
2018-07-24T05:48:19.447Z,49.10
2018-07-24T05:50:47.916Z,49.20
2018-07-24T05:53:16.485Z,49.20
2018-07-24T05:55:44.969Z,49.30
2018-07-24T05:58:13.490Z,49.50
2018-07-24T06:00:41.986Z,49.50
2018-07-24T06:03:10.543Z,49.60
2018-07-24T06:05:39.020Z,49.70
2018-07-24T06:08:07.514Z,49.70
2018-07-24T06:10:35.974Z,49.80
2018-07-24T06:13:05.197Z,49.80
2018-07-24T06:15:33.879Z,49.90
2018-07-24T06:18:02.382Z,49.90
2018-07-24T06:20:30.830Z,48.60
2018-07-24T06:22:59.357Z,48.50
2018-07-24T06:25:27.860Z,48.10
2018-07-24T06:27:56.562Z,48.10
2018-07-24T06:30:25.031Z,48.40
2018-07-24T06:32:53.612Z,48.20
2018-07-24T06:35:22.205Z,48.40
2018-07-24T06:37:51.296Z,48.30
2018-07-24T06:42:48.027Z,48.00
2018-07-24T06:45:16.581Z,47.90
2018-07-24T06:47:45.113Z,47.70
2018-07-24T06:50:13.778Z,47.70
2018-07-24T06:52:42.509Z,47.30
2018-07-24T06:55:11.081Z,47.20
2018-07-24T06:57:40.442Z,47.00
2018-07-24T07:00:09.007Z,46.80
2018-07-24T07:02:37.469Z,46.50
2018-07-24T07:05:06.559Z,46.20
2018-07-24T07:07:35.013Z,46.40
2018-07-24T07:10:03.628Z,46.50
2018-07-24T07:12:32.796Z,46.40
2018-07-24T07:15:01.565Z,46.40
2018-07-24T07:17:30.054Z,46.30
2018-07-24T07:19:58.578Z,46.00
2018-07-24T07:22:27.087Z,45.90
2018-07-24T07:24:55.593Z,45.80
2018-07-24T07:29:52.239Z,45.60
2018-07-24T07:32:20.788Z,45.60
2018-07-24T07:34:49.407Z,44.70
2018-07-24T07:37:17.958Z,44.70
2018-07-24T07:39:46.519Z,44.70
2018-07-24T07:42:14.965Z,44.70
2018-07-24T07:44:43.482Z,44.70
2018-07-24T07:47:12.031Z,44.90
2018-07-24T07:52:08.752Z,44.30
2018-07-24T07:54:37.203Z,43.80
2018-07-24T07:57:05.728Z,44.00
2018-07-24T07:59:34.311Z,43.80
2018-07-24T08:02:02.838Z,43.40
2018-07-24T08:04:31.354Z,43.20
2018-07-24T08:06:59.989Z,43.30
2018-07-24T08:09:28.537Z,43.00
2018-07-24T08:11:57.080Z,42.90
2018-07-24T08:14:26.172Z,42.60
2018-07-24T08:16:54.762Z,42.50
2018-07-24T08:19:23.276Z,42.70
2018-07-24T08:21:52.234Z,42.60
2018-07-24T08:24:20.758Z,42.60
2018-07-24T08:26:49.217Z,42.40
2018-07-24T08:29:17.713Z,42.30
2018-07-24T08:31:46.173Z,42.20
2018-07-24T08:34:14.711Z,41.70
2018-07-24T08:36:43.188Z,41.50
2018-07-24T08:39:12.842Z,41.20
2018-07-24T08:41:42.091Z,41.30
2018-07-24T08:44:10.583Z,40.70
2018-07-24T08:46:39.080Z,40.50
2018-07-24T08:49:07.802Z,40.20
2018-07-24T08:51:36.252Z,40.00
2018-07-24T08:54:04.860Z,40.20
2018-07-24T08:56:33.359Z,40.00
2018-07-24T08:59:01.817Z,39.70
2018-07-24T09:01:30.323Z,39.00
2018-07-24T09:03:58.819Z,39.20
2018-07-24T09:06:27.409Z,39.20
2018-07-24T09:08:55.999Z,39.20
2018-07-24T09:11:25.466Z,39.20
2018-07-24T09:13:55.215Z,39.20
2018-07-24T09:16:24.750Z,39.10
2018-07-24T09:18:54.627Z,39.20
2018-07-24T09:21:23.161Z,39.30
2018-07-24T09:23:51.861Z,39.40
2018-07-24T09:26:20.390Z,39.40
2018-07-24T09:28:48.880Z,39.30
2018-07-24T09:31:18.726Z,38.70
2018-07-24T09:33:47.781Z,38.40
2018-07-24T09:38:45.104Z,38.10
2018-07-24T09:41:13.641Z,36.90
2018-07-24T09:43:42.144Z,36.90
2018-07-24T09:46:10.841Z,36.40
2018-07-24T09:48:39.550Z,37.20
2018-07-24T09:51:08.397Z,37.60
2018-07-24T09:53:36.858Z,37.10
2018-07-24T09:58:34.526Z,37.20
2018-07-24T10:01:08.519Z,37.30
2018-07-24T10:03:37.066Z,37.40
2018-07-24T10:06:05.586Z,37.10
2018-07-24T10:08:34.094Z,37.20
2018-07-24T10:11:02.641Z,37.20
2018-07-24T10:13:31.418Z,37.20
2018-07-24T10:15:59.921Z,37.80
2018-07-24T10:18:28.378Z,36.20
2018-07-24T10:20:56.962Z,35.90
2018-07-24T10:23:25.836Z,36.00
2018-07-24T10:25:54.334Z,35.80
2018-07-24T10:28:22.815Z,36.00
2018-07-24T10:30:51.334Z,36.50
2018-07-24T10:33:19.825Z,36.60
2018-07-24T10:35:49.064Z,36.90
2018-07-24T10:38:17.649Z,36.80
2018-07-24T10:40:46.228Z,37.10
2018-07-24T10:43:15.221Z,37.10
2018-07-24T10:45:44.163Z,37.30
2018-07-24T10:48:12.722Z,37.40
2018-07-24T10:50:41.623Z,37.20
2018-07-24T10:53:10.109Z,37.20
2018-07-24T10:55:39.078Z,37.10
2018-07-24T10:58:07.597Z,37.20
2018-07-24T11:00:36.026Z,37.50
2018-07-24T11:03:04.626Z,37.30
2018-07-24T11:05:33.220Z,37.70
2018-07-24T11:08:02.493Z,37.80
2018-07-24T11:10:31.184Z,37.60
2018-07-24T11:12:59.894Z,38.00
2018-07-24T11:15:28.441Z,37.70
2018-07-24T11:17:56.930Z,38.00
2018-07-24T11:20:25.596Z,38.00
2018-07-24T11:22:54.226Z,38.10
2018-07-24T11:25:23.024Z,38.10
2018-07-24T11:27:51.546Z,38.00
2018-07-24T11:30:20.190Z,38.20
2018-07-24T11:32:48.706Z,38.80
2018-07-24T11:35:17.242Z,38.90
2018-07-24T11:37:45.906Z,38.90
2018-07-24T11:40:14.435Z,38.80
2018-07-24T11:42:42.913Z,38.40
2018-07-24T11:45:11.413Z,37.80
2018-07-24T11:47:39.874Z,37.70
2018-07-24T11:50:08.567Z,37.80
2018-07-24T11:52:37.429Z,38.30
2018-07-24T11:55:06.191Z,38.90
2018-07-24T11:57:34.726Z,38.10
2018-07-24T12:00:03.251Z,38.50
2018-07-24T12:02:31.781Z,38.80
2018-07-24T12:05:00.226Z,38.70
2018-07-24T12:07:28.771Z,38.70
2018-07-24T12:09:57.262Z,38.60
2018-07-24T12:12:25.781Z,38.60
2018-07-24T12:14:54.501Z,38.60
2018-07-24T12:17:22.966Z,38.50
2018-07-24T12:19:51.676Z,38.50
2018-07-24T12:22:20.177Z,38.50
2018-07-24T12:24:49.378Z,38.50
2018-07-24T12:27:18.137Z,38.50
2018-07-24T12:29:46.591Z,38.50
2018-07-24T12:32:15.105Z,38.50
2018-07-24T12:34:46.141Z,38.50
2018-07-24T12:37:16.801Z,38.50
2018-07-24T12:39:45.315Z,38.50
2018-07-24T12:42:13.822Z,38.50
2018-07-24T12:44:42.257Z,38.50
2018-07-24T12:47:10.724Z,38.60
2018-07-24T12:49:39.906Z,38.60
2018-07-24T12:52:08.436Z,38.60
2018-07-24T12:54:36.929Z,38.60
2018-07-24T12:57:05.562Z,38.90
2018-07-24T12:59:34.169Z,38.40
2018-07-24T13:02:02.659Z,37.60
2018-07-24T13:04:31.246Z,36.20
2018-07-24T13:06:59.741Z,34.40
2018-07-24T13:09:29.013Z,32.40
2018-07-24T13:11:57.593Z,30.80
2018-07-24T13:14:26.294Z,29.70
2018-07-24T13:16:55.355Z,29.20
2018-07-24T13:19:23.935Z,28.10
2018-07-24T13:21:52.449Z,27.10
2018-07-24T13:24:21.081Z,26.30
2018-07-24T13:26:50.206Z,25.60
2018-07-24T13:29:18.822Z,24.20
2018-07-24T13:31:47.342Z,24.00
2018-07-24T13:34:16.412Z,22.80
2018-07-24T13:36:45.208Z,22.10
2018-07-24T13:39:13.801Z,21.90
2018-07-24T13:41:42.268Z,20.80
2018-07-24T13:44:11.031Z,21.10
2018-07-24T13:46:39.688Z,21.30
2018-07-24T13:49:08.274Z,20.40
2018-07-24T13:54:04.903Z,19.10
2018-07-24T13:56:33.370Z,18.60
2018-07-24T13:59:02.700Z,18.30
2018-07-24T14:01:31.090Z,16.80
2018-07-24T14:03:59.898Z,17.20
2018-07-24T14:06:28.370Z,16.50
2018-07-24T14:08:56.889Z,15.80
2018-07-24T14:11:25.609Z,15.20
2018-07-24T14:13:54.371Z,15.20
2018-07-24T14:16:23.090Z,14.20
2018-07-24T14:18:51.823Z,14.40
2018-07-24T14:21:20.918Z,12.60
2018-07-24T14:23:49.424Z,12.60
2018-07-24T14:26:17.900Z,12.50
2018-07-24T14:28:46.444Z,12.60
2018-07-24T14:31:16.292Z,12.70
2018-07-24T14:33:45.318Z,12.40
2018-07-24T14:36:14.141Z,12.10
2018-07-24T14:38:42.664Z,11.60
2018-07-24T14:41:11.173Z,11.30
2018-07-24T14:43:39.686Z,11.70
2018-07-24T14:48:36.310Z,12.40
2018-07-24T14:51:05.060Z,10.80
2018-07-24T14:53:33.587Z,10.10
2018-07-24T14:56:03.229Z,10.30
2018-07-24T14:58:31.703Z,10.30
2018-07-24T15:01:00.198Z,9.80
2018-07-24T15:03:28.809Z,9.80
2018-07-24T15:05:57.292Z,11.30
2018-07-24T15:08:26.393Z,11.30
2018-07-24T15:10:54.906Z,11.00
2018-07-24T15:13:23.489Z,11.10
2018-07-24T15:15:52.128Z,11.70
2018-07-24T15:18:20.610Z,11.30
2018-07-24T15:20:49.173Z,10.00
2018-07-24T15:23:18.594Z,10.00
2018-07-24T15:25:47.584Z,8.40
2018-07-24T15:28:16.264Z,7.30
2018-07-24T15:30:45.698Z,7.30
2018-07-24T15:33:14.265Z,8.20
2018-07-24T15:35:42.920Z,7.70
2018-07-24T15:38:11.485Z,7.20
2018-07-24T15:40:40.053Z,6.80
2018-07-24T15:43:08.526Z,6.60
2018-07-24T15:45:37.473Z,6.30
2018-07-24T15:48:06.974Z,6.30
2018-07-24T15:50:35.666Z,5.80
2018-07-24T15:53:04.170Z,5.50
2018-07-24T15:55:32.700Z,5.50
2018-07-24T15:58:01.660Z,4.60
2018-07-24T16:00:30.326Z,5.10
2018-07-24T16:02:58.823Z,5.00
2018-07-24T16:05:27.356Z,4.20
2018-07-24T16:07:55.879Z,4.60
2018-07-24T16:10:24.411Z,4.00
2018-07-24T16:12:53.543Z,3.80
2018-07-24T16:15:22.111Z,3.80
2018-07-24T16:17:50.842Z,3.90
2018-07-24T16:20:19.439Z,3.90
2018-07-24T16:22:48.001Z,3.20
2018-07-24T16:25:16.559Z,2.60
2018-07-24T16:27:45.353Z,2.50
2018-07-24T16:30:13.934Z,3.50
2018-07-24T16:32:43.538Z,5.20
2018-07-24T16:35:12.239Z,7.20
2018-07-24T16:37:40.798Z,8.30
2018-07-24T16:40:10.207Z,9.30
2018-07-24T16:42:38.758Z,10.70
2018-07-24T16:45:07.361Z,11.90
2018-07-24T16:47:35.859Z,13.20
2018-07-24T16:50:05.568Z,14.30
2018-07-24T16:52:34.197Z,15.00
2018-07-24T16:55:03.610Z,16.00
2018-07-24T16:57:32.577Z,17.00
2018-07-24T17:00:01.218Z,17.80
2018-07-24T17:02:29.757Z,17.50
2018-07-24T17:04:58.586Z,18.00
2018-07-24T17:07:27.185Z,18.00
2018-07-24T17:09:56.394Z,18.80
2018-07-24T17:12:25.104Z,19.40
2018-07-24T17:14:53.997Z,19.80
2018-07-24T17:17:22.768Z,20.20
2018-07-24T17:19:51.308Z,20.60
2018-07-24T17:22:19.938Z,20.90
2018-07-24T17:24:48.408Z,21.10
2018-07-24T17:27:17.002Z,21.40
2018-07-24T17:29:45.481Z,21.70
2018-07-24T17:32:16.470Z,21.90
2018-07-24T17:37:13.351Z,22.50
2018-07-24T17:39:42.735Z,22.60
2018-07-24T17:44:39.442Z,23.10
2018-07-24T17:47:07.988Z,23.40
2018-07-24T17:49:36.488Z,23.60
2018-07-24T17:52:05.170Z,23.80
2018-07-24T17:54:33.666Z,24.10
2018-07-24T17:57:02.522Z,24.40
2018-07-24T17:59:30.998Z,24.60
2018-07-24T18:01:59.724Z,24.90
2018-07-24T18:04:28.234Z,25.00
2018-07-24T18:06:58.187Z,25.20
2018-07-24T18:09:26.659Z,25.50
2018-07-24T18:11:55.379Z,25.70
2018-07-24T18:14:24.901Z,26.10
2018-07-24T18:16:53.926Z,26.80
2018-07-24T18:19:22.433Z,26.70
2018-07-24T18:21:50.977Z,26.70
2018-07-24T18:24:19.441Z,26.70
2018-07-24T18:26:48.435Z,26.70
2018-07-24T18:29:16.951Z,26.60
2018-07-24T18:31:45.527Z,27.30
2018-07-24T18:34:14.077Z,26.60
2018-07-24T18:36:43.073Z,26.50
2018-07-24T18:39:11.678Z,26.40
2018-07-24T18:41:40.274Z,27.00
2018-07-24T18:44:08.836Z,27.30
2018-07-24T18:46:37.328Z,27.70
2018-07-24T18:49:05.889Z,27.70
2018-07-24T18:51:34.851Z,27.80
2018-07-24T18:54:03.505Z,28.00
2018-07-24T18:56:32.048Z,28.20
2018-07-24T18:59:00.643Z,27.70
2018-07-24T19:01:29.143Z,28.40
2018-07-24T19:03:57.673Z,28.70
2018-07-24T19:06:26.453Z,28.80
2018-07-24T19:08:55.080Z,29.00
2018-07-24T19:11:23.587Z,29.30
2018-07-24T19:13:52.410Z,29.50
2018-07-24T19:16:21.270Z,29.60
2018-07-24T19:18:49.985Z,29.90
2018-07-24T19:21:18.536Z,30.10
2018-07-24T19:23:47.085Z,30.00
2018-07-24T19:26:15.595Z,30.30
2018-07-24T19:28:44.442Z,30.70
2018-07-24T19:31:12.996Z,30.20
2018-07-24T19:33:42.015Z,31.10
2018-07-24T19:36:10.558Z,31.10
2018-07-24T19:38:39.097Z,31.60
2018-07-24T19:41:07.681Z,31.50
2018-07-24T19:43:36.402Z,31.50
2018-07-24T19:46:05.222Z,31.60
2018-07-24T19:48:33.783Z,32.10
2018-07-24T19:51:02.715Z,32.40
2018-07-24T19:53:31.324Z,32.40
2018-07-24T19:56:00.873Z,32.90
2018-07-24T19:58:30.162Z,33.20
2018-07-24T20:00:58.855Z,33.00
2018-07-24T20:03:27.620Z,33.90
2018-07-24T20:05:56.103Z,34.70
2018-07-24T20:08:24.622Z,33.90
2018-07-24T20:10:53.111Z,34.10
2018-07-24T20:13:21.813Z,34.50
2018-07-24T20:15:50.317Z,34.70
2018-07-24T20:18:19.511Z,34.80
2018-07-24T20:20:48.710Z,35.10
2018-07-24T20:23:17.659Z,35.20
2018-07-24T20:25:46.317Z,35.60
2018-07-24T20:28:15.964Z,36.30
2018-07-24T20:30:44.479Z,36.70
2018-07-24T20:33:13.563Z,37.90
2018-07-24T20:35:42.683Z,37.80
2018-07-24T20:38:11.356Z,37.80
2018-07-24T20:40:40.079Z,37.70
2018-07-24T20:43:08.908Z,37.70
2018-07-24T20:45:37.402Z,37.60
2018-07-24T20:48:07.198Z,38.40
2018-07-24T20:50:35.796Z,38.70
2018-07-24T20:53:04.317Z,39.40
2018-07-24T20:55:32.839Z,39.70
2018-07-24T20:58:01.383Z,40.10
2018-07-24T21:00:29.950Z,40.30
2018-07-24T21:02:58.420Z,40.60
2018-07-24T21:05:27.048Z,40.80
2018-07-24T21:07:56.101Z,41.10
2018-07-24T21:10:24.666Z,41.20
2018-07-24T21:12:53.231Z,41.30
2018-07-24T21:17:50.256Z,41.80
2018-07-24T21:20:18.973Z,42.00
2018-07-24T21:22:48.253Z,42.40
2018-07-24T21:25:16.938Z,42.50
2018-07-24T21:27:45.514Z,42.60
2018-07-24T21:30:14.259Z,42.90
2018-07-24T21:32:42.763Z,42.90
2018-07-24T21:35:11.482Z,43.30
2018-07-24T21:37:40.923Z,43.20
2018-07-24T21:40:09.525Z,43.50
2018-07-24T21:42:38.860Z,43.40
2018-07-24T21:45:07.345Z,43.90
2018-07-24T21:47:35.948Z,44.00
2018-07-24T21:50:04.616Z,43.90
2018-07-24T21:52:33.163Z,43.90
2018-07-24T21:55:02.942Z,44.30
2018-07-24T21:57:31.593Z,44.50
2018-07-24T22:00:00.818Z,43.40
2018-07-24T22:02:29.395Z,45.00
2018-07-24T22:07:27.178Z,45.60
2018-07-24T22:09:55.677Z,45.90
2018-07-24T22:12:24.744Z,46.10
2018-07-24T22:14:53.278Z,46.20
2018-07-24T22:17:21.815Z,46.60
2018-07-24T22:19:50.356Z,46.80
2018-07-24T22:22:18.882Z,47.10
2018-07-24T22:27:15.758Z,47.60
2018-07-24T22:29:44.290Z,47.80
2018-07-24T22:32:13.881Z,48.10
2018-07-24T22:34:42.834Z,48.20
2018-07-24T22:37:11.345Z,48.10
2018-07-24T22:39:39.792Z,48.20
2018-07-24T22:42:08.773Z,48.40
2018-07-24T22:47:05.796Z,48.80
2018-07-24T22:49:34.193Z,49.60
2018-07-24T22:52:02.584Z,49.80
2018-07-24T22:54:30.942Z,50.10
2018-07-24T22:56:59.698Z,50.10
2018-07-24T22:59:28.334Z,50.10
2018-07-24T23:01:56.817Z,50.10
2018-07-24T23:04:25.446Z,50.00
2018-07-24T23:06:53.850Z,50.80
2018-07-24T23:09:22.328Z,50.00
2018-07-24T23:11:50.728Z,49.90
2018-07-24T23:14:19.189Z,49.90
2018-07-24T23:16:47.771Z,49.90
2018-07-24T23:19:16.350Z,50.00
2018-07-24T23:21:44.941Z,50.70
2018-07-24T23:24:13.457Z,50.90
2018-07-24T23:29:10.032Z,51.50
2018-07-24T23:31:38.477Z,51.70
2018-07-24T23:34:06.920Z,51.90
2018-07-24T23:36:35.300Z,51.60
2018-07-24T23:39:04.453Z,51.80
2018-07-24T23:41:32.930Z,51.70
2018-07-24T23:44:01.327Z,52.40
2018-07-24T23:46:30.387Z,52.70
2018-07-24T23:48:58.824Z,53.00
2018-07-24T23:51:27.226Z,53.40
2018-07-24T23:53:56.181Z,53.60
2018-07-24T23:56:24.781Z,53.40
2018-07-24T23:58:53.494Z,53.60
